sensor_id;sensor_type;location;lat;lon;timestamp;P1;durP1;ratioP1;P2;durP2;ratioP2
40649;SDS011;26342;42.826;23.992;2024-02-04T00:00:03;3.28;;;2.05;;
40649;SDS011;26342;42.826;23.992;2024-02-04T00:02:30;5.82;;;2.63;;
40649;SDS011;26342;42.826;23.992;2024-02-04T00:04:56;6.35;;;2.55;;
40649;SDS011;26342;42.826;23.992;2024-02-04T00:07:21;5.43;;;1.90;;
40649;SDS011;26342;42.826;23.992;2024-02-04T00:09:47;3.70;;;1.63;;
40649;SDS011;26342;42.826;23.992;2024-02-04T00:12:12;3.75;;;2.05;;
40649;SDS011;26342;42.826;23.992;2024-02-04T00:14:38;3.42;;;2.15;;
40649;SDS011;26342;42.826;23.992;2024-02-04T00:17:03;5.47;;;1.65;;
40649;SDS011;26342;42.826;23.992;2024-02-04T00:19:29;0.82;;;0.63;;
40649;SDS011;26342;42.826;23.992;2024-02-04T00:21:55;1.90;;;1.23;;
40649;SDS011;26342;42.826;23.992;2024-02-04T00:24:20;1.25;;;0.65;;
40649;SDS011;26342;42.826;23.992;2024-02-04T00:26:46;3.88;;;1.08;;
40649;SDS011;26342;42.826;23.992;2024-02-04T00:29:12;3.70;;;1.48;;
40649;SDS011;26342;42.826;23.992;2024-02-04T00:31:37;3.15;;;1.17;;
40649;SDS011;26342;42.826;23.992;2024-02-04T00:34:03;1.73;;;1.10;;
40649;SDS011;26342;42.826;23.992;2024-02-04T00:36:29;3.97;;;2.38;;
40649;SDS011;26342;42.826;23.992;2024-02-04T00:38:55;5.45;;;1.98;;
40649;SDS011;26342;42.826;23.992;2024-02-04T00:41:20;13.68;;;5.10;;
40649;SDS011;26342;42.826;23.992;2024-02-04T00:43:46;1.40;;;0.90;;
40649;SDS011;26342;42.826;23.992;2024-02-04T00:46:11;5.43;;;1.98;;
40649;SDS011;26342;42.826;23.992;2024-02-04T00:48:37;4.63;;;1.45;;
40649;SDS011;26342;42.826;23.992;2024-02-04T00:51:03;2.63;;;1.63;;
40649;SDS011;26342;42.826;23.992;2024-02-04T00:53:29;3.28;;;1.00;;
40649;SDS011;26342;42.826;23.992;2024-02-04T00:56:00;0.65;;;0.52;;
40649;SDS011;26342;42.826;23.992;2024-02-04T00:58:26;1.17;;;0.85;;
40649;SDS011;26342;42.826;23.992;2024-02-04T01:00:51;2.05;;;1.08;;
40649;SDS011;26342;42.826;23.992;2024-02-04T01:03:17;0.80;;;0.63;;
40649;SDS011;26342;42.826;23.992;2024-02-04T01:05:42;1.42;;;1.08;;
40649;SDS011;26342;42.826;23.992;2024-02-04T01:08:08;1.42;;;1.20;;
40649;SDS011;26342;42.826;23.992;2024-02-04T01:10:33;4.07;;;1.83;;
40649;SDS011;26342;42.826;23.992;2024-02-04T01:12:59;3.42;;;1.95;;
40649;SDS011;26342;42.826;23.992;2024-02-04T01:15:24;2.10;;;0.68;;
40649;SDS011;26342;42.826;23.992;2024-02-04T01:17:51;5.20;;;2.10;;
40649;SDS011;26342;42.826;23.992;2024-02-04T01:20:17;3.28;;;1.60;;
40649;SDS011;26342;42.826;23.992;2024-02-04T01:22:43;1.73;;;1.58;;
40649;SDS011;26342;42.826;23.992;2024-02-04T01:25:09;4.95;;;2.72;;
40649;SDS011;26342;42.826;23.992;2024-02-04T01:27:34;6.95;;;3.97;;
40649;SDS011;26342;42.826;23.992;2024-02-04T01:30:00;6.63;;;3.00;;
40649;SDS011;26342;42.826;23.992;2024-02-04T01:32:25;3.00;;;2.20;;
40649;SDS011;26342;42.826;23.992;2024-02-04T01:34:51;5.65;;;2.78;;
40649;SDS011;26342;42.826;23.992;2024-02-04T01:37:16;3.40;;;2.03;;
40649;SDS011;26342;42.826;23.992;2024-02-04T01:39:42;3.88;;;3.22;;
40649;SDS011;26342;42.826;23.992;2024-02-04T01:42:07;8.82;;;2.53;;
40649;SDS011;26342;42.826;23.992;2024-02-04T01:44:33;5.43;;;3.03;;
40649;SDS011;26342;42.826;23.992;2024-02-04T01:46:58;3.78;;;2.25;;
40649;SDS011;26342;42.826;23.992;2024-02-04T01:49:24;3.33;;;1.70;;
40649;SDS011;26342;42.826;23.992;2024-02-04T01:51:51;1.15;;;0.68;;
40649;SDS011;26342;42.826;23.992;2024-02-04T01:54:17;1.92;;;0.70;;
40649;SDS011;26342;42.826;23.992;2024-02-04T01:56:42;1.70;;;0.80;;
40649;SDS011;26342;42.826;23.992;2024-02-04T01:59:11;0.50;;;0.50;;
40649;SDS011;26342;42.826;23.992;2024-02-04T02:01:38;0.35;;;0.30;;
40649;SDS011;26342;42.826;23.992;2024-02-04T02:04:04;0.40;;;0.40;;
40649;SDS011;26342;42.826;23.992;2024-02-04T02:06:30;0.70;;;0.52;;
40649;SDS011;26342;42.826;23.992;2024-02-04T02:08:56;2.88;;;0.95;;
40649;SDS011;26342;42.826;23.992;2024-02-04T02:14:37;4.80;;;2.22;;
40649;SDS011;26342;42.826;23.992;2024-02-04T02:17:10;4.93;;;2.65;;
40649;SDS011;26342;42.826;23.992;2024-02-04T02:19:56;5.00;;;2.03;;
40649;SDS011;26342;42.826;23.992;2024-02-04T02:22:28;6.03;;;2.20;;
40649;SDS011;26342;42.826;23.992;2024-02-04T02:25:01;8.18;;;3.28;;
40649;SDS011;26342;42.826;23.992;2024-02-04T02:27:30;4.80;;;3.00;;
40649;SDS011;26342;42.826;23.992;2024-02-04T02:29:55;12.50;;;4.32;;
40649;SDS011;26342;42.826;23.992;2024-02-04T02:32:21;13.77;;;3.65;;
40649;SDS011;26342;42.826;23.992;2024-02-04T02:34:46;11.52;;;5.05;;
40649;SDS011;26342;42.826;23.992;2024-02-04T02:37:20;7.97;;;3.20;;
40649;SDS011;26342;42.826;23.992;2024-02-04T02:42:55;4.05;;;2.45;;
40649;SDS011;26342;42.826;23.992;2024-02-04T02:45:23;7.65;;;3.33;;
40649;SDS011;26342;42.826;23.992;2024-02-04T02:47:50;8.68;;;3.05;;
40649;SDS011;26342;42.826;23.992;2024-02-04T02:50:17;3.42;;;3.05;;
40649;SDS011;26342;42.826;23.992;2024-02-04T02:52:43;10.05;;;3.58;;
40649;SDS011;26342;42.826;23.992;2024-02-04T02:55:08;6.82;;;2.25;;
40649;SDS011;26342;42.826;23.992;2024-02-04T02:57:34;2.33;;;1.45;;
40649;SDS011;26342;42.826;23.992;2024-02-04T02:59:59;2.38;;;1.42;;
40649;SDS011;26342;42.826;23.992;2024-02-04T03:02:25;6.22;;;3.50;;
40649;SDS011;26342;42.826;23.992;2024-02-04T03:04:50;2.05;;;1.85;;
40649;SDS011;26342;42.826;23.992;2024-02-04T03:07:16;2.40;;;1.42;;
40649;SDS011;26342;42.826;23.992;2024-02-04T03:09:42;5.80;;;3.55;;
40649;SDS011;26342;42.826;23.992;2024-02-04T03:12:09;4.05;;;2.00;;
40649;SDS011;26342;42.826;23.992;2024-02-04T03:14:34;5.90;;;1.80;;
40649;SDS011;26342;42.826;23.992;2024-02-04T03:17:00;9.15;;;3.78;;
40649;SDS011;26342;42.826;23.992;2024-02-04T03:19:25;4.95;;;2.53;;
40649;SDS011;26342;42.826;23.992;2024-02-04T03:21:50;4.63;;;2.70;;
40649;SDS011;26342;42.826;23.992;2024-02-04T03:24:16;5.35;;;3.45;;
40649;SDS011;26342;42.826;23.992;2024-02-04T03:26:41;15.25;;;3.05;;
40649;SDS011;26342;42.826;23.992;2024-02-04T03:29:07;6.00;;;2.83;;
40649;SDS011;26342;42.826;23.992;2024-02-04T03:31:33;8.38;;;3.55;;
40649;SDS011;26342;42.826;23.992;2024-02-04T03:33:58;5.72;;;3.85;;
40649;SDS011;26342;42.826;23.992;2024-02-04T03:36:24;10.43;;;4.38;;
40649;SDS011;26342;42.826;23.992;2024-02-04T03:38:50;14.98;;;4.63;;
40649;SDS011;26342;42.826;23.992;2024-02-04T03:41:16;12.27;;;3.33;;
40649;SDS011;26342;42.826;23.992;2024-02-04T03:43:42;4.72;;;3.40;;
40649;SDS011;26342;42.826;23.992;2024-02-04T03:46:08;12.00;;;5.07;;
40649;SDS011;26342;42.826;23.992;2024-02-04T03:48:33;14.55;;;6.10;;
40649;SDS011;26342;42.826;23.992;2024-02-04T03:51:00;12.73;;;5.28;;
40649;SDS011;26342;42.826;23.992;2024-02-04T03:53:26;15.77;;;5.35;;
40649;SDS011;26342;42.826;23.992;2024-02-04T03:55:51;13.50;;;6.20;;
40649;SDS011;26342;42.826;23.992;2024-02-04T03:58:19;9.98;;;4.05;;
40649;SDS011;26342;42.826;23.992;2024-02-04T04:00:45;10.02;;;4.85;;
40649;SDS011;26342;42.826;23.992;2024-02-04T04:03:10;9.63;;;5.38;;
40649;SDS011;26342;42.826;23.992;2024-02-04T04:05:36;8.10;;;4.93;;
40649;SDS011;26342;42.826;23.992;2024-02-04T04:08:01;9.23;;;4.88;;
40649;SDS011;26342;42.826;23.992;2024-02-04T04:10:27;6.30;;;4.80;;
40649;SDS011;26342;42.826;23.992;2024-02-04T04:12:52;15.88;;;8.00;;
40649;SDS011;26342;42.826;23.992;2024-02-04T04:15:18;12.77;;;5.75;;
40649;SDS011;26342;42.826;23.992;2024-02-04T04:17:43;19.90;;;7.05;;
40649;SDS011;26342;42.826;23.992;2024-02-04T04:20:09;11.20;;;7.20;;
40649;SDS011;26342;42.826;23.992;2024-02-04T04:22:35;17.80;;;6.38;;
40649;SDS011;26342;42.826;23.992;2024-02-04T04:25:00;23.90;;;9.20;;
40649;SDS011;26342;42.826;23.992;2024-02-04T04:27:25;22.17;;;8.30;;
40649;SDS011;26342;42.826;23.992;2024-02-04T04:29:51;19.17;;;9.45;;
40649;SDS011;26342;42.826;23.992;2024-02-04T04:32:16;15.82;;;10.85;;
40649;SDS011;26342;42.826;23.992;2024-02-04T04:34:42;24.48;;;12.82;;
40649;SDS011;26342;42.826;23.992;2024-02-04T04:37:07;18.48;;;9.15;;
40649;SDS011;26342;42.826;23.992;2024-02-04T04:39:33;13.40;;;7.50;;
40649;SDS011;26342;42.826;23.992;2024-02-04T04:41:58;10.48;;;7.03;;
40649;SDS011;26342;42.826;23.992;2024-02-04T04:44:24;19.15;;;7.40;;
40649;SDS011;26342;42.826;23.992;2024-02-04T04:46:49;19.52;;;7.75;;
40649;SDS011;26342;42.826;23.992;2024-02-04T04:49:15;21.80;;;8.35;;
40649;SDS011;26342;42.826;23.992;2024-02-04T04:51:44;10.30;;;5.25;;
40649;SDS011;26342;42.826;23.992;2024-02-04T04:54:13;14.93;;;6.00;;
40649;SDS011;26342;42.826;23.992;2024-02-04T04:56:39;9.80;;;6.32;;
40649;SDS011;26342;42.826;23.992;2024-02-04T04:59:08;10.05;;;7.60;;
40649;SDS011;26342;42.826;23.992;2024-02-04T05:01:34;7.25;;;4.78;;
40649;SDS011;26342;42.826;23.992;2024-02-04T05:04:00;12.90;;;5.65;;
40649;SDS011;26342;42.826;23.992;2024-02-04T05:06:26;9.50;;;4.55;;
40649;SDS011;26342;42.826;23.992;2024-02-04T05:08:52;14.00;;;6.85;;
40649;SDS011;26342;42.826;23.992;2024-02-04T05:11:17;16.85;;;7.10;;
40649;SDS011;26342;42.826;23.992;2024-02-04T05:13:43;9.88;;;4.75;;
40649;SDS011;26342;42.826;23.992;2024-02-04T05:16:08;8.05;;;4.38;;
40649;SDS011;26342;42.826;23.992;2024-02-04T05:18:34;12.68;;;6.43;;
40649;SDS011;26342;42.826;23.992;2024-02-04T05:21:03;9.38;;;4.50;;
40649;SDS011;26342;42.826;23.992;2024-02-04T05:23:29;17.85;;;7.03;;
40649;SDS011;26342;42.826;23.992;2024-02-04T05:25:55;11.90;;;6.22;;
40649;SDS011;26342;42.826;23.992;2024-02-04T05:28:20;12.85;;;6.85;;
40649;SDS011;26342;42.826;23.992;2024-02-04T05:30:46;9.38;;;5.70;;
40649;SDS011;26342;42.826;23.992;2024-02-04T05:33:14;16.02;;;5.13;;
40649;SDS011;26342;42.826;23.992;2024-02-04T05:35:41;12.75;;;4.57;;
40649;SDS011;26342;42.826;23.992;2024-02-04T05:38:08;16.38;;;6.53;;
40649;SDS011;26342;42.826;23.992;2024-02-04T05:40:34;15.55;;;5.05;;
40649;SDS011;26342;42.826;23.992;2024-02-04T05:42:59;9.45;;;4.10;;
40649;SDS011;26342;42.826;23.992;2024-02-04T05:45:25;6.57;;;2.83;;
40649;SDS011;26342;42.826;23.992;2024-02-04T05:47:50;14.07;;;4.85;;
40649;SDS011;26342;42.826;23.992;2024-02-04T05:50:16;7.43;;;4.53;;
40649;SDS011;26342;42.826;23.992;2024-02-04T05:52:41;12.55;;;5.78;;
40649;SDS011;26342;42.826;23.992;2024-02-04T05:55:07;15.18;;;7.97;;
40649;SDS011;26342;42.826;23.992;2024-02-04T05:57:35;11.55;;;5.78;;
40649;SDS011;26342;42.826;23.992;2024-02-04T06:00:00;6.88;;;3.72;;
40649;SDS011;26342;42.826;23.992;2024-02-04T06:02:26;8.02;;;3.53;;
40649;SDS011;26342;42.826;23.992;2024-02-04T06:04:51;10.15;;;4.53;;
40649;SDS011;26342;42.826;23.992;2024-02-04T06:07:16;11.32;;;6.20;;
40649;SDS011;26342;42.826;23.992;2024-02-04T06:09:42;9.32;;;5.30;;
40649;SDS011;26342;42.826;23.992;2024-02-04T06:12:07;17.08;;;6.18;;
40649;SDS011;26342;42.826;23.992;2024-02-04T06:14:33;13.10;;;7.10;;
40649;SDS011;26342;42.826;23.992;2024-02-04T06:17:00;10.57;;;6.53;;
40649;SDS011;26342;42.826;23.992;2024-02-04T06:19:25;14.30;;;8.32;;
40649;SDS011;26342;42.826;23.992;2024-02-04T06:21:50;16.60;;;6.60;;
40649;SDS011;26342;42.826;23.992;2024-02-04T06:24:16;11.80;;;5.00;;
40649;SDS011;26342;42.826;23.992;2024-02-04T06:26:41;15.73;;;6.43;;
40649;SDS011;26342;42.826;23.992;2024-02-04T06:29:07;13.35;;;7.40;;
40649;SDS011;26342;42.826;23.992;2024-02-04T06:31:32;17.80;;;6.45;;
40649;SDS011;26342;42.826;23.992;2024-02-04T06:33:58;16.95;;;8.38;;
40649;SDS011;26342;42.826;23.992;2024-02-04T06:36:23;35.28;;;12.90;;
40649;SDS011;26342;42.826;23.992;2024-02-04T06:38:49;33.70;;;15.48;;
40649;SDS011;26342;42.826;23.992;2024-02-04T06:41:14;23.80;;;9.85;;
40649;SDS011;26342;42.826;23.992;2024-02-04T06:43:39;17.73;;;10.82;;
40649;SDS011;26342;42.826;23.992;2024-02-04T06:46:05;24.52;;;10.35;;
40649;SDS011;26342;42.826;23.992;2024-02-04T06:48:30;19.40;;;7.28;;
40649;SDS011;26342;42.826;23.992;2024-02-04T06:50:56;22.63;;;10.15;;
40649;SDS011;26342;42.826;23.992;2024-02-04T06:53:21;17.55;;;8.90;;
40649;SDS011;26342;42.826;23.992;2024-02-04T06:55:46;10.50;;;6.22;;
40649;SDS011;26342;42.826;23.992;2024-02-04T06:58:12;16.20;;;6.57;;
40649;SDS011;26342;42.826;23.992;2024-02-04T07:00:37;17.92;;;7.78;;
40649;SDS011;26342;42.826;23.992;2024-02-04T07:03:02;17.15;;;8.38;;
40649;SDS011;26342;42.826;23.992;2024-02-04T07:05:28;20.15;;;10.35;;
40649;SDS011;26342;42.826;23.992;2024-02-04T07:07:53;39.35;;;17.05;;
40649;SDS011;26342;42.826;23.992;2024-02-04T07:10:19;35.38;;;16.27;;
40649;SDS011;26342;42.826;23.992;2024-02-04T07:12:44;19.70;;;10.15;;
40649;SDS011;26342;42.826;23.992;2024-02-04T07:15:10;11.13;;;6.80;;
40649;SDS011;26342;42.826;23.992;2024-02-04T07:17:35;3.20;;;2.13;;
40649;SDS011;26342;42.826;23.992;2024-02-04T07:20:01;1.88;;;1.02;;
40649;SDS011;26342;42.826;23.992;2024-02-04T07:22:27;2.13;;;0.93;;
40649;SDS011;26342;42.826;23.992;2024-02-04T07:24:53;21.65;;;7.60;;
40649;SDS011;26342;42.826;23.992;2024-02-04T07:27:18;19.95;;;7.50;;
40649;SDS011;26342;42.826;23.992;2024-02-04T07:29:44;10.65;;;3.58;;
40649;SDS011;26342;42.826;23.992;2024-02-04T07:32:09;3.03;;;1.73;;
40649;SDS011;26342;42.826;23.992;2024-02-04T07:34:35;7.82;;;2.35;;
40649;SDS011;26342;42.826;23.992;2024-02-04T07:37:00;5.60;;;1.98;;
40649;SDS011;26342;42.826;23.992;2024-02-04T07:39:26;2.85;;;1.20;;
40649;SDS011;26342;42.826;23.992;2024-02-04T07:41:51;3.42;;;1.95;;
40649;SDS011;26342;42.826;23.992;2024-02-04T07:44:18;4.78;;;2.97;;
40649;SDS011;26342;42.826;23.992;2024-02-04T07:46:44;7.47;;;4.57;;
40649;SDS011;26342;42.826;23.992;2024-02-04T07:49:09;4.57;;;2.38;;
40649;SDS011;26342;42.826;23.992;2024-02-04T07:51:35;6.65;;;2.40;;
40649;SDS011;26342;42.826;23.992;2024-02-04T07:54:01;6.00;;;3.63;;
40649;SDS011;26342;42.826;23.992;2024-02-04T07:56:26;12.82;;;5.30;;
40649;SDS011;26342;42.826;23.992;2024-02-04T07:58:52;6.72;;;3.67;;
40649;SDS011;26342;42.826;23.992;2024-02-04T08:01:18;6.07;;;3.67;;
40649;SDS011;26342;42.826;23.992;2024-02-04T08:03:44;19.23;;;9.25;;
40649;SDS011;26342;42.826;23.992;2024-02-04T08:06:11;10.80;;;6.93;;
40649;SDS011;26342;42.826;23.992;2024-02-04T08:08:37;10.98;;;6.05;;
40649;SDS011;26342;42.826;23.992;2024-02-04T08:11:02;16.55;;;7.28;;
40649;SDS011;26342;42.826;23.992;2024-02-04T08:13:28;8.52;;;5.53;;
40649;SDS011;26342;42.826;23.992;2024-02-04T08:15:53;12.25;;;5.95;;
40649;SDS011;26342;42.826;23.992;2024-02-04T08:18:19;10.95;;;5.40;;
40649;SDS011;26342;42.826;23.992;2024-02-04T08:20:45;8.95;;;4.03;;
40649;SDS011;26342;42.826;23.992;2024-02-04T08:23:10;8.63;;;4.13;;
40649;SDS011;26342;42.826;23.992;2024-02-04T08:25:36;4.75;;;3.35;;
40649;SDS011;26342;42.826;23.992;2024-02-04T08:28:03;6.07;;;3.67;;
40649;SDS011;26342;42.826;23.992;2024-02-04T08:30:29;5.53;;;3.95;;
40649;SDS011;26342;42.826;23.992;2024-02-04T08:32:54;9.18;;;4.38;;
40649;SDS011;26342;42.826;23.992;2024-02-04T08:35:20;6.13;;;4.78;;
40649;SDS011;26342;42.826;23.992;2024-02-04T08:37:45;13.93;;;6.22;;
40649;SDS011;26342;42.826;23.992;2024-02-04T08:40:10;20.02;;;11.23;;
40649;SDS011;26342;42.826;23.992;2024-02-04T08:42:36;25.13;;;11.07;;
40649;SDS011;26342;42.826;23.992;2024-02-04T08:45:01;17.60;;;11.30;;
40649;SDS011;26342;42.826;23.992;2024-02-04T08:47:27;18.60;;;12.80;;
40649;SDS011;26342;42.826;23.992;2024-02-04T08:49:52;12.00;;;6.50;;
40649;SDS011;26342;42.826;23.992;2024-02-04T08:52:18;15.93;;;6.75;;
40649;SDS011;26342;42.826;23.992;2024-02-04T08:54:43;6.57;;;3.78;;
40649;SDS011;26342;42.826;23.992;2024-02-04T08:57:09;8.30;;;3.70;;
40649;SDS011;26342;42.826;23.992;2024-02-04T08:59:34;6.45;;;2.75;;
40649;SDS011;26342;42.826;23.992;2024-02-04T09:02:00;7.90;;;2.78;;
40649;SDS011;26342;42.826;23.992;2024-02-04T09:04:25;5.53;;;2.88;;
40649;SDS011;26342;42.826;23.992;2024-02-04T09:06:50;6.68;;;3.88;;
40649;SDS011;26342;42.826;23.992;2024-02-04T09:09:16;6.68;;;2.70;;
40649;SDS011;26342;42.826;23.992;2024-02-04T09:11:41;2.60;;;1.88;;
40649;SDS011;26342;42.826;23.992;2024-02-04T09:14:06;5.97;;;3.45;;
40649;SDS011;26342;42.826;23.992;2024-02-04T09:16:32;6.22;;;3.42;;
40649;SDS011;26342;42.826;23.992;2024-02-04T09:18:58;10.13;;;3.00;;
40649;SDS011;26342;42.826;23.992;2024-02-04T09:21:24;4.20;;;2.75;;
40649;SDS011;26342;42.826;23.992;2024-02-04T09:23:50;4.72;;;2.30;;
40649;SDS011;26342;42.826;23.992;2024-02-04T09:26:15;3.15;;;2.40;;
40649;SDS011;26342;42.826;23.992;2024-02-04T09:28:41;1.88;;;1.25;;
40649;SDS011;26342;42.826;23.992;2024-02-04T09:31:09;3.72;;;2.33;;
40649;SDS011;26342;42.826;23.992;2024-02-04T09:33:34;2.45;;;1.33;;
40649;SDS011;26342;42.826;23.992;2024-02-04T09:36:00;3.85;;;1.42;;
40649;SDS011;26342;42.826;23.992;2024-02-04T09:38:26;1.38;;;1.10;;
40649;SDS011;26342;42.826;23.992;2024-02-04T09:40:51;1.48;;;1.20;;
40649;SDS011;26342;42.826;23.992;2024-02-04T09:43:17;2.60;;;1.10;;
40649;SDS011;26342;42.826;23.992;2024-02-04T09:45:44;1.42;;;1.20;;
40649;SDS011;26342;42.826;23.992;2024-02-04T09:48:09;1.50;;;0.88;;
40649;SDS011;26342;42.826;23.992;2024-02-04T09:50:36;0.73;;;0.73;;
40649;SDS011;26342;42.826;23.992;2024-02-04T09:53:02;0.93;;;0.70;;
40649;SDS011;26342;42.826;23.992;2024-02-04T09:55:29;1.33;;;0.77;;
40649;SDS011;26342;42.826;23.992;2024-02-04T09:57:56;0.40;;;0.40;;
40649;SDS011;26342;42.826;23.992;2024-02-04T10:00:22;5.43;;;1.08;;
40649;SDS011;26342;42.826;23.992;2024-02-04T10:02:52;1.50;;;1.40;;
40649;SDS011;26342;42.826;23.992;2024-02-04T10:05:19;3.35;;;1.52;;
40649;SDS011;26342;42.826;23.992;2024-02-04T10:07:45;4.60;;;1.98;;
40649;SDS011;26342;42.826;23.992;2024-02-04T10:10:10;3.80;;;2.22;;
40649;SDS011;26342;42.826;23.992;2024-02-04T10:12:37;3.05;;;1.60;;
40649;SDS011;26342;42.826;23.992;2024-02-04T10:15:04;0.73;;;0.68;;
40649;SDS011;26342;42.826;23.992;2024-02-04T10:17:30;2.08;;;0.75;;
40649;SDS011;26342;42.826;23.992;2024-02-04T10:19:56;2.20;;;1.33;;
40649;SDS011;26342;42.826;23.992;2024-02-04T10:22:22;0.77;;;0.40;;
40649;SDS011;26342;42.826;23.992;2024-02-04T10:24:48;0.52;;;0.52;;
40649;SDS011;26342;42.826;23.992;2024-02-04T10:27:14;1.88;;;1.17;;
40649;SDS011;26342;42.826;23.992;2024-02-04T10:29:40;1.88;;;1.35;;
40649;SDS011;26342;42.826;23.992;2024-02-04T10:32:06;0.80;;;0.50;;
40649;SDS011;26342;42.826;23.992;2024-02-04T10:34:36;0.82;;;0.82;;
40649;SDS011;26342;42.826;23.992;2024-02-04T10:37:02;1.13;;;0.82;;
40649;SDS011;26342;42.826;23.992;2024-02-04T10:39:27;0.25;;;0.10;;
40649;SDS011;26342;42.826;23.992;2024-02-04T10:41:53;1.02;;;0.80;;
40649;SDS011;26342;42.826;23.992;2024-02-04T10:44:21;1.55;;;0.63;;
40649;SDS011;26342;42.826;23.992;2024-02-04T10:46:49;0.30;;;0.30;;
40649;SDS011;26342;42.826;23.992;2024-02-04T10:49:15;0.95;;;0.73;;
40649;SDS011;26342;42.826;23.992;2024-02-04T10:51:42;0.80;;;0.50;;
40649;SDS011;26342;42.826;23.992;2024-02-04T10:54:10;1.20;;;0.63;;
40649;SDS011;26342;42.826;23.992;2024-02-04T10:56:37;1.73;;;1.55;;
40649;SDS011;26342;42.826;23.992;2024-02-04T10:59:07;1.00;;;0.98;;
40649;SDS011;26342;42.826;23.992;2024-02-04T11:01:34;2.35;;;1.15;;
40649;SDS011;26342;42.826;23.992;2024-02-04T11:04:01;1.17;;;1.13;;
40649;SDS011;26342;42.826;23.992;2024-02-04T11:06:27;0.70;;;0.70;;
40649;SDS011;26342;42.826;23.992;2024-02-04T11:08:53;1.55;;;0.73;;
40649;SDS011;26342;42.826;23.992;2024-02-04T11:11:21;0.90;;;0.50;;
40649;SDS011;26342;42.826;23.992;2024-02-04T11:13:49;0.45;;;0.43;;
40649;SDS011;26342;42.826;23.992;2024-02-04T11:22:12;0.32;;;0.32;;
40649;SDS011;26342;42.826;23.992;2024-02-04T11:27:43;0.30;;;0.30;;
40649;SDS011;26342;42.826;23.992;2024-02-04T11:30:10;0.20;;;0.20;;
40649;SDS011;26342;42.826;23.992;2024-02-04T11:32:36;0.17;;;0.17;;
40649;SDS011;26342;42.826;23.992;2024-02-04T11:35:02;0.68;;;0.52;;
40649;SDS011;26342;42.826;23.992;2024-02-04T11:37:32;1.38;;;1.15;;
40649;SDS011;26342;42.826;23.992;2024-02-04T11:39:58;0.43;;;0.10;;
40649;SDS011;26342;42.826;23.992;2024-02-04T11:42:24;0.10;;;0.10;;
40649;SDS011;26342;42.826;23.992;2024-02-04T11:44:50;0.00;;;0.00;;
40649;SDS011;26342;42.826;23.992;2024-02-04T11:47:27;0.43;;;0.20;;
40649;SDS011;26342;42.826;23.992;2024-02-04T11:49:57;1.60;;;0.20;;
40649;SDS011;26342;42.826;23.992;2024-02-04T11:52:23;2.38;;;0.68;;
40649;SDS011;26342;42.826;23.992;2024-02-04T11:54:52;0.35;;;0.35;;
40649;SDS011;26342;42.826;23.992;2024-02-04T11:57:17;0.10;;;0.10;;
40649;SDS011;26342;42.826;23.992;2024-02-04T11:59:44;0.40;;;0.28;;
40649;SDS011;26342;42.826;23.992;2024-02-04T12:02:10;0.22;;;0.20;;
40649;SDS011;26342;42.826;23.992;2024-02-04T12:04:37;0.73;;;0.45;;
40649;SDS011;26342;42.826;23.992;2024-02-04T12:07:04;0.22;;;0.20;;
40649;SDS011;26342;42.826;23.992;2024-02-04T12:09:30;0.68;;;0.68;;
40649;SDS011;26342;42.826;23.992;2024-02-04T12:11:56;2.83;;;1.20;;
40649;SDS011;26342;42.826;23.992;2024-02-04T12:14:22;0.17;;;0.10;;
40649;SDS011;26342;42.826;23.992;2024-02-04T12:16:48;0.10;;;0.10;;
40649;SDS011;26342;42.826;23.992;2024-02-04T12:19:15;0.40;;;0.35;;
40649;SDS011;26342;42.826;23.992;2024-02-04T12:21:42;0.00;;;0.00;;
40649;SDS011;26342;42.826;23.992;2024-02-04T12:24:08;0.17;;;0.17;;
40649;SDS011;26342;42.826;23.992;2024-02-04T12:26:33;0.20;;;0.20;;
40649;SDS011;26342;42.826;23.992;2024-02-04T12:28:59;0.32;;;0.32;;
40649;SDS011;26342;42.826;23.992;2024-02-04T12:31:25;0.65;;;0.65;;
40649;SDS011;26342;42.826;23.992;2024-02-04T12:33:57;0.60;;;0.50;;
40649;SDS011;26342;42.826;23.992;2024-02-04T12:36:26;0.25;;;0.25;;
40649;SDS011;26342;42.826;23.992;2024-02-04T12:38:56;1.20;;;0.70;;
40649;SDS011;26342;42.826;23.992;2024-02-04T12:41:26;0.82;;;0.32;;
40649;SDS011;26342;42.826;23.992;2024-02-04T12:43:53;0.55;;;0.55;;
40649;SDS011;26342;42.826;23.992;2024-02-04T12:46:19;0.40;;;0.32;;
40649;SDS011;26342;42.826;23.992;2024-02-04T12:48:55;1.90;;;0.65;;
40649;SDS011;26342;42.826;23.992;2024-02-04T12:53:50;0.52;;;0.47;;
40649;SDS011;26342;42.826;23.992;2024-02-04T12:56:16;1.15;;;0.70;;
40649;SDS011;26342;42.826;23.992;2024-02-04T12:58:42;1.30;;;0.77;;
40649;SDS011;26342;42.826;23.992;2024-02-04T13:01:08;1.15;;;0.82;;
40649;SDS011;26342;42.826;23.992;2024-02-04T13:03:37;3.00;;;1.52;;
40649;SDS011;26342;42.826;23.992;2024-02-04T13:06:03;0.05;;;0.05;;
40649;SDS011;26342;42.826;23.992;2024-02-04T13:08:28;5.82;;;1.83;;
40649;SDS011;26342;42.826;23.992;2024-02-04T13:10:54;0.38;;;0.38;;
40649;SDS011;26342;42.826;23.992;2024-02-04T13:13:21;0.52;;;0.30;;
40649;SDS011;26342;42.826;23.992;2024-02-04T13:15:46;0.40;;;0.32;;
40649;SDS011;26342;42.826;23.992;2024-02-04T13:18:12;1.48;;;1.08;;
40649;SDS011;26342;42.826;23.992;2024-02-04T13:20:40;0.30;;;0.30;;
40649;SDS011;26342;42.826;23.992;2024-02-04T13:23:07;0.40;;;0.40;;
40649;SDS011;26342;42.826;23.992;2024-02-04T13:25:33;0.10;;;0.10;;
40649;SDS011;26342;42.826;23.992;2024-02-04T13:28:00;0.30;;;0.30;;
40649;SDS011;26342;42.826;23.992;2024-02-04T13:30:26;1.02;;;0.80;;
40649;SDS011;26342;42.826;23.992;2024-02-04T13:32:52;0.98;;;0.90;;
40649;SDS011;26342;42.826;23.992;2024-02-04T13:35:17;0.95;;;0.70;;
40649;SDS011;26342;42.826;23.992;2024-02-04T13:37:44;1.38;;;0.82;;
40649;SDS011;26342;42.826;23.992;2024-02-04T13:40:16;3.40;;;0.65;;
40649;SDS011;26342;42.826;23.992;2024-02-04T13:42:44;0.10;;;0.10;;
40649;SDS011;26342;42.826;23.992;2024-02-04T13:45:10;0.08;;;0.03;;
40649;SDS011;26342;42.826;23.992;2024-02-04T13:47:39;0.08;;;0.08;;
40649;SDS011;26342;42.826;23.992;2024-02-04T13:50:06;0.90;;;0.75;;
40649;SDS011;26342;42.826;23.992;2024-02-04T13:52:34;1.00;;;0.57;;
40649;SDS011;26342;42.826;23.992;2024-02-04T13:55:00;0.47;;;0.47;;
40649;SDS011;26342;42.826;23.992;2024-02-04T13:57:26;0.57;;;0.57;;
40649;SDS011;26342;42.826;23.992;2024-02-04T13:59:51;0.47;;;0.38;;
40649;SDS011;26342;42.826;23.992;2024-02-04T14:02:17;0.38;;;0.38;;
40649;SDS011;26342;42.826;23.992;2024-02-04T14:04:42;0.82;;;0.52;;
40649;SDS011;26342;42.826;23.992;2024-02-04T14:07:08;0.38;;;0.38;;
40649;SDS011;26342;42.826;23.992;2024-02-04T14:09:34;1.70;;;0.50;;
40649;SDS011;26342;42.826;23.992;2024-02-04T14:12:01;2.33;;;0.90;;
40649;SDS011;26342;42.826;23.992;2024-02-04T14:14:28;1.00;;;0.63;;
40649;SDS011;26342;42.826;23.992;2024-02-04T14:16:54;1.65;;;0.77;;
40649;SDS011;26342;42.826;23.992;2024-02-04T14:19:20;0.80;;;0.70;;
40649;SDS011;26342;42.826;23.992;2024-02-04T14:21:46;2.88;;;0.45;;
40649;SDS011;26342;42.826;23.992;2024-02-04T14:24:11;0.35;;;0.25;;
40649;SDS011;26342;42.826;23.992;2024-02-04T14:26:37;1.08;;;0.52;;
40649;SDS011;26342;42.826;23.992;2024-02-04T14:29:03;11.27;;;1.25;;
40649;SDS011;26342;42.826;23.992;2024-02-04T14:31:29;1.50;;;0.77;;
40649;SDS011;26342;42.826;23.992;2024-02-04T14:33:54;0.38;;;0.38;;
40649;SDS011;26342;42.826;23.992;2024-02-04T14:36:20;2.08;;;0.68;;
40649;SDS011;26342;42.826;23.992;2024-02-04T14:38:46;3.38;;;1.50;;
40649;SDS011;26342;42.826;23.992;2024-02-04T14:41:12;1.27;;;1.20;;